createdAt,value
2018-04-28T00:01:32.069Z,72.22
2018-04-28T00:04:02.763Z,63.90
2018-04-28T00:06:33.472Z,71.37
2018-04-28T00:09:04.383Z,70.75
2018-04-28T00:11:35.234Z,67.85
2018-04-28T00:14:06.021Z,70.25
2018-04-28T00:16:44.152Z,72.30
2018-04-28T00:19:14.889Z,76.47
2018-04-28T00:21:45.886Z,67.82
2018-04-28T00:24:16.671Z,75.30
2018-04-28T00:26:47.672Z,69.45
2018-04-28T00:29:18.523Z,67.37
2018-04-28T00:31:49.391Z,67.30
2018-04-28T00:34:20.191Z,74.93
2018-04-28T00:36:53.272Z,76.07
2018-04-28T00:39:23.997Z,68.82
2018-04-28T00:41:54.712Z,65.82
2018-04-28T00:44:25.639Z,67.30
2018-04-28T00:46:56.567Z,68.87
2018-04-28T00:49:27.453Z,65.32
2018-04-28T00:51:58.629Z,67.53
2018-04-28T00:54:29.678Z,71.40
2018-04-28T00:57:00.529Z,63.10
2018-04-28T00:59:31.312Z,72.62
2018-04-28T01:02:02.141Z,68.05
2018-04-28T01:04:33.227Z,68.45
2018-04-28T01:07:03.935Z,67.60
2018-04-28T01:09:34.784Z,62.62
2018-04-28T01:12:05.898Z,71.00
2018-04-28T01:14:38.051Z,69.03
2018-04-28T01:17:09.075Z,66.43
2018-04-28T01:19:39.800Z,64.75
2018-04-28T01:22:10.652Z,65.60
2018-04-28T01:24:41.289Z,67.10
2018-04-28T01:27:12.226Z,69.85
2018-04-28T01:29:50.740Z,70.20
2018-04-28T01:32:21.437Z,68.20
2018-04-28T01:34:52.327Z,71.70
2018-04-28T01:37:23.394Z,68.50
2018-04-28T01:39:54.328Z,67.40
2018-04-28T01:42:25.117Z,65.18
2018-04-28T01:44:55.812Z,63.67
2018-04-28T01:47:26.578Z,62.13
2018-04-28T01:49:57.787Z,68.62
2018-04-28T01:52:28.647Z,65.65
2018-04-28T01:55:01.151Z,64.75
2018-04-28T01:57:32.004Z,66.57
2018-04-28T02:00:03.328Z,66.40
2018-04-28T02:02:34.099Z,66.60
2018-04-28T02:05:04.959Z,67.68
2018-04-28T02:07:35.704Z,65.40
2018-04-28T02:10:06.653Z,61.15
2018-04-28T02:12:37.592Z,64.15
2018-04-28T02:15:08.218Z,61.28
2018-04-28T02:17:38.997Z,64.90
2018-04-28T02:20:09.764Z,67.20
2018-04-28T02:22:40.811Z,62.72
2018-04-28T02:25:11.563Z,67.80
2018-04-28T02:27:42.322Z,59.50
2018-04-28T02:30:13.041Z,68.37
2018-04-28T02:32:44.045Z,66.90
2018-04-28T02:35:15.241Z,66.62
2018-04-28T02:37:46.057Z,69.15
2018-04-28T02:40:16.933Z,68.85
2018-04-28T02:42:47.553Z,64.75
2018-04-28T02:45:18.421Z,68.95
2018-04-28T02:47:49.134Z,67.03
2018-04-28T02:50:19.963Z,67.20
2018-04-28T02:52:50.780Z,61.95
2018-04-28T02:55:21.602Z,61.05
2018-04-28T02:57:52.812Z,62.03
2018-04-28T03:00:23.907Z,68.00
2018-04-28T03:02:55.090Z,65.85
2018-04-28T03:05:25.952Z,82.00
2018-04-28T03:07:58.519Z,70.20
2018-04-28T03:10:28.943Z,66.40
2018-04-28T03:12:59.458Z,63.38
2018-04-28T03:15:29.824Z,69.55
2018-04-28T03:18:00.373Z,69.65
2018-04-28T03:20:31.268Z,69.97
2018-04-28T03:23:01.825Z,65.43
2018-04-28T03:25:32.316Z,89.00
2018-04-28T03:28:02.641Z,92.82
2018-04-28T03:30:33.178Z,72.05
2018-04-28T03:33:03.537Z,64.70
2018-04-28T03:35:34.013Z,71.30
2018-04-28T03:38:04.748Z,71.72
2018-04-28T03:40:35.293Z,78.60
2018-04-28T03:43:05.700Z,70.05
2018-04-28T03:45:36.068Z,74.20
2018-04-28T03:48:08.778Z,70.65
2018-04-28T03:50:39.295Z,66.90
2018-04-28T03:53:09.636Z,72.97
2018-04-28T03:55:40.217Z,68.70
2018-04-28T03:59:19.815Z,74.07
2018-04-28T04:02:59.639Z,75.90
2018-04-28T04:05:30.073Z,70.53
2018-04-28T04:08:00.656Z,70.85
2018-04-28T04:10:31.156Z,71.35
2018-04-28T04:13:01.728Z,74.32
2018-04-28T04:15:32.541Z,69.75
2018-04-28T04:18:11.521Z,74.35
2018-04-28T04:20:50.600Z,69.50
2018-04-28T04:23:21.168Z,74.07
2018-04-28T04:25:51.798Z,64.97
2018-04-28T04:28:22.722Z,63.42
2018-04-28T04:30:53.520Z,63.35
2018-04-28T04:33:28.184Z,67.80
2018-04-28T04:35:59.204Z,67.12
2018-04-28T04:38:29.669Z,69.60
2018-04-28T04:41:00.113Z,70.45
2018-04-28T04:43:30.877Z,73.15
2018-04-28T04:46:02.000Z,63.40
2018-04-28T04:48:36.291Z,63.67
2018-04-28T04:51:07.176Z,65.32
2018-04-28T04:53:38.624Z,72.65
2018-04-28T04:56:13.262Z,67.32
2018-04-28T04:58:43.686Z,74.25
2018-04-28T05:01:20.715Z,61.78
2018-04-28T05:03:52.123Z,66.68
2018-04-28T05:06:22.645Z,70.72
2018-04-28T05:08:55.478Z,65.87
2018-04-28T05:11:26.090Z,73.22
2018-04-28T05:13:56.573Z,68.90
2018-04-28T05:16:26.940Z,74.22
2018-04-28T05:18:57.419Z,70.57
2018-04-28T05:21:28.164Z,67.40
2018-04-28T05:24:02.004Z,66.30
2018-04-28T05:26:32.809Z,66.22
2018-04-28T05:29:06.492Z,66.53
2018-04-28T05:31:39.012Z,64.70
2018-04-28T05:34:10.121Z,67.93
2018-04-28T05:36:40.600Z,63.22
2018-04-28T05:39:11.044Z,68.93
2018-04-28T05:41:41.816Z,65.55
2018-04-28T05:44:12.596Z,65.15
2018-04-28T05:46:43.128Z,64.60
2018-04-28T05:49:13.803Z,68.85
2018-04-28T05:51:44.407Z,65.65
2018-04-28T05:54:15.032Z,74.35
2018-04-28T05:56:45.611Z,64.37
2018-04-28T05:59:16.212Z,66.32
2018-04-28T06:01:47.356Z,71.28
2018-04-28T06:04:26.838Z,71.95
2018-04-28T06:07:02.136Z,111.12
2018-04-28T06:09:32.609Z,93.03
2018-04-28T06:12:03.448Z,85.93
2018-04-28T06:14:33.967Z,79.32
2018-04-28T06:17:04.756Z,76.53
2018-04-28T06:19:35.531Z,76.20
2018-04-28T06:22:06.063Z,70.87
2018-04-28T06:24:36.580Z,75.37
2018-04-28T06:27:06.931Z,74.15
2018-04-28T06:29:37.292Z,77.10
2018-04-28T06:32:07.886Z,77.43
2018-04-28T06:34:38.459Z,73.85
2018-04-28T06:37:08.925Z,73.18
2018-04-28T06:39:39.304Z,75.50
2018-04-28T06:42:09.680Z,72.43
2018-04-28T06:44:39.911Z,78.05
2018-04-28T06:47:10.383Z,75.22
2018-04-28T06:49:40.777Z,80.70
2018-04-28T06:52:11.111Z,78.53
2018-04-28T06:54:41.563Z,73.53
2018-04-28T06:57:12.258Z,77.12
2018-04-28T06:59:42.883Z,79.95
2018-04-28T07:02:13.120Z,80.53
2018-04-28T07:04:43.713Z,78.40
2018-04-28T07:07:14.195Z,77.07
2018-04-28T07:09:44.647Z,81.87
2018-04-28T07:12:15.012Z,77.20
2018-04-28T07:14:45.387Z,77.80
2018-04-28T07:17:15.789Z,77.05
2018-04-28T07:19:46.211Z,82.97
2018-04-28T07:22:16.829Z,76.60
2018-04-28T07:24:47.244Z,84.97
2018-04-28T07:27:17.651Z,81.78
2018-04-28T07:29:48.132Z,82.45
2018-04-28T07:32:18.561Z,86.87
2018-04-28T07:34:48.909Z,88.37
2018-04-28T07:37:19.103Z,80.35
2018-04-28T07:39:49.635Z,80.03
2018-04-28T07:42:20.034Z,81.43
2018-04-28T07:44:50.510Z,87.10
2018-04-28T07:47:21.008Z,79.70
2018-04-28T07:49:51.513Z,84.18
2018-04-28T07:52:22.039Z,84.68
2018-04-28T07:54:52.570Z,85.90
2018-04-28T07:57:22.905Z,82.60
2018-04-28T07:59:53.396Z,88.25
2018-04-28T08:02:23.664Z,85.87
2018-04-28T08:04:54.140Z,82.43
2018-04-28T08:07:24.481Z,81.95
2018-04-28T08:09:54.987Z,92.18
2018-04-28T08:12:25.205Z,88.40
2018-04-28T08:14:55.631Z,89.35
2018-04-28T08:17:26.018Z,85.60
2018-04-28T08:19:56.316Z,90.38
2018-04-28T08:22:26.632Z,89.25
2018-04-28T08:25:00.594Z,100.65
2018-04-28T08:27:30.886Z,84.65
2018-04-28T08:30:01.358Z,87.90
2018-04-28T08:32:31.938Z,88.72
2018-04-28T08:35:02.344Z,92.75
2018-04-28T08:37:32.691Z,90.50
2018-04-28T08:40:03.133Z,84.80
2018-04-28T08:42:33.830Z,84.18
2018-04-28T08:45:04.302Z,82.15
2018-04-28T08:47:34.695Z,86.75
2018-04-28T08:50:05.136Z,90.55
2018-04-28T08:52:35.554Z,93.28
2018-04-28T08:55:05.914Z,91.22
2018-04-28T08:57:36.171Z,84.70
2018-04-28T09:00:17.297Z,94.13
2018-04-28T09:02:47.648Z,90.70
2018-04-28T09:05:18.066Z,78.97
2018-04-28T09:07:48.480Z,83.87
2018-04-28T09:10:19.085Z,83.20
2018-04-28T09:12:49.693Z,86.95
2018-04-28T09:15:20.599Z,84.82
2018-04-28T09:17:51.268Z,75.65
2018-04-28T09:20:21.990Z,80.10
2018-04-28T09:22:52.771Z,81.65
2018-04-28T09:25:23.889Z,80.32
2018-04-28T09:27:54.559Z,77.78
2018-04-28T09:30:25.633Z,81.85
2018-04-28T09:32:56.392Z,83.62
2018-04-28T09:35:27.055Z,86.72
2018-04-28T09:37:57.776Z,87.07
2018-04-28T09:40:28.413Z,84.05
2018-04-28T09:42:59.137Z,81.07
2018-04-28T09:45:29.840Z,82.95
2018-04-28T09:48:00.404Z,83.87
2018-04-28T09:50:31.052Z,87.28
2018-04-28T09:53:01.608Z,86.85
2018-04-28T09:55:32.432Z,86.60
2018-04-28T09:58:06.507Z,82.93
2018-04-28T10:00:37.466Z,87.65
2018-04-28T10:03:12.317Z,82.07
2018-04-28T10:05:42.983Z,82.75
2018-04-28T10:08:13.627Z,80.68
2018-04-28T10:10:44.195Z,86.90
2018-04-28T10:13:15.018Z,82.60
2018-04-28T10:15:45.572Z,80.65
2018-04-28T10:18:16.301Z,81.43
2018-04-28T10:20:46.886Z,85.15
2018-04-28T10:23:17.527Z,82.30
2018-04-28T10:25:48.422Z,89.78
2018-04-28T10:28:19.040Z,86.63
2018-04-28T10:30:49.770Z,84.18
2018-04-28T10:33:20.571Z,82.32
2018-04-28T10:35:51.156Z,81.12
2018-04-28T10:38:22.472Z,84.82
2018-04-28T10:40:53.012Z,87.90
2018-04-28T10:43:23.952Z,82.40
2018-04-28T10:45:54.591Z,91.22
2018-04-28T10:48:25.309Z,92.22
2018-04-28T10:50:55.975Z,87.37
2018-04-28T10:53:26.723Z,94.35
2018-04-28T10:55:57.299Z,87.35
2018-04-28T10:58:27.992Z,84.13
2018-04-28T11:00:58.700Z,81.78
2018-04-28T11:03:29.335Z,78.50
2018-04-28T11:05:59.963Z,87.40
2018-04-28T11:08:30.727Z,87.47
2018-04-28T11:11:01.402Z,80.65
2018-04-28T11:13:32.496Z,82.57
2018-04-28T11:16:03.417Z,85.55
2018-04-28T11:18:34.200Z,88.35
2018-04-28T11:21:04.949Z,85.25
2018-04-28T11:23:35.925Z,83.85
2018-04-28T11:26:06.487Z,84.45
2018-04-28T11:28:37.282Z,93.78
2018-04-28T11:31:08.378Z,88.82
2018-04-28T11:33:39.008Z,92.93
2018-04-28T11:36:09.983Z,79.32
2018-04-28T11:38:40.649Z,80.85
2018-04-28T11:41:12.249Z,86.37
2018-04-28T11:43:42.855Z,95.03
2018-04-28T11:46:13.570Z,89.55
2018-04-28T11:48:44.312Z,68.55
2018-04-28T11:51:15.346Z,82.50
2018-04-28T11:53:46.147Z,85.12
2018-04-28T11:56:16.749Z,85.38
2018-04-28T11:58:48.021Z,86.95
2018-04-28T12:01:18.636Z,85.12
2018-04-28T12:03:49.354Z,84.43
2018-04-28T12:06:20.003Z,92.37
2018-04-28T12:08:50.696Z,89.62
2018-04-28T12:11:21.401Z,85.80
2018-04-28T12:13:52.009Z,93.28
2018-04-28T12:16:22.724Z,91.05
2018-04-28T12:18:53.363Z,88.68
2018-04-28T12:21:23.980Z,84.97
2018-04-28T12:23:54.580Z,81.82
2018-04-28T12:26:25.239Z,82.30
2018-04-28T12:28:55.816Z,83.20
2018-04-28T12:31:26.656Z,89.55
2018-04-28T12:33:57.267Z,83.47
2018-04-28T12:36:28.084Z,90.20
2018-04-28T12:38:58.819Z,88.78
2018-04-28T12:41:29.552Z,86.82
2018-04-28T12:44:00.223Z,88.90
2018-04-28T12:46:31.008Z,87.45
2018-04-28T12:49:01.891Z,88.00
2018-04-28T12:51:32.716Z,88.57
2018-04-28T12:54:04.266Z,92.32
2018-04-28T12:56:34.860Z,89.15
2018-04-28T12:59:05.555Z,81.07
2018-04-28T13:01:36.292Z,87.18
2018-04-28T13:04:06.855Z,91.57
2018-04-28T13:06:37.585Z,81.70
2018-04-28T13:09:08.335Z,73.43
2018-04-28T13:11:38.884Z,77.43
2018-04-28T13:14:09.602Z,83.20
2018-04-28T13:20:15.645Z,93.53
2018-04-28T13:22:46.480Z,86.47
2018-04-28T13:25:16.967Z,90.57
2018-04-28T13:27:47.624Z,90.50
2018-04-28T13:30:18.458Z,87.95
2018-04-28T13:32:49.002Z,89.45
2018-04-28T13:35:19.897Z,89.60
2018-04-28T13:37:51.045Z,87.15
2018-04-28T13:40:22.483Z,86.37
2018-04-28T13:42:54.112Z,87.18
2018-04-28T13:45:25.911Z,84.03
2018-04-28T13:47:56.714Z,91.22
2018-04-28T13:50:27.254Z,87.55
2018-04-28T13:52:58.223Z,81.63
2018-04-28T13:55:28.842Z,85.22
2018-04-28T13:57:59.525Z,91.05
2018-04-28T14:00:30.242Z,85.25
2018-04-28T14:03:00.931Z,84.30
2018-04-28T14:05:31.682Z,80.97
2018-04-28T14:08:02.383Z,79.20
2018-04-28T14:10:33.031Z,87.22
2018-04-28T14:13:03.584Z,84.30
2018-04-28T14:15:34.423Z,79.35
2018-04-28T14:18:05.102Z,78.20
2018-04-28T14:20:35.944Z,81.63
2018-04-28T14:23:06.579Z,84.55
2018-04-28T14:25:37.227Z,86.10
2018-04-28T14:28:08.027Z,93.97
2018-04-28T14:30:38.743Z,85.87
2018-04-28T14:33:09.548Z,82.50
2018-04-28T14:35:40.108Z,76.75
2018-04-28T14:38:10.796Z,80.95
2018-04-28T14:40:41.572Z,82.05
2018-04-28T14:43:12.504Z,79.03
2018-04-28T14:45:43.197Z,84.65
2018-04-28T14:48:13.854Z,84.55
2018-04-28T14:50:44.442Z,82.32
2018-04-28T14:53:15.027Z,81.30
2018-04-28T14:55:45.504Z,81.03
2018-04-28T14:58:16.255Z,84.87
2018-04-28T15:00:46.915Z,85.60
2018-04-28T15:03:17.621Z,76.43
2018-04-28T15:05:48.218Z,90.07
2018-04-28T15:08:18.768Z,88.93
2018-04-28T15:10:49.364Z,85.05
2018-04-28T15:13:19.892Z,89.65
2018-04-28T15:15:50.769Z,86.47
2018-04-28T15:18:21.491Z,84.97
2018-04-28T15:20:52.091Z,88.28
2018-04-28T15:23:22.729Z,89.40
2018-04-28T15:25:53.316Z,83.40
2018-04-28T15:28:24.141Z,87.07
2018-04-28T15:30:54.659Z,82.70
2018-04-28T15:33:25.332Z,82.75
2018-04-28T15:35:56.311Z,81.47
2018-04-28T15:38:27.413Z,81.78
2018-04-28T15:40:58.048Z,77.25
2018-04-28T15:43:28.728Z,83.00
2018-04-28T15:45:59.413Z,84.03
2018-04-28T15:48:30.721Z,85.53
2018-04-28T15:51:01.736Z,89.87
2018-04-28T15:53:32.383Z,86.25
2018-04-28T15:56:03.100Z,86.40
2018-04-28T15:58:33.645Z,87.95
2018-04-28T16:01:04.479Z,83.03
2018-04-28T16:03:35.173Z,83.90
2018-04-28T16:06:05.907Z,86.78
2018-04-28T16:08:36.640Z,89.50
2018-04-28T16:11:07.153Z,82.72
2018-04-28T16:13:37.874Z,85.55
2018-04-28T16:16:08.543Z,86.93
2018-04-28T16:18:39.504Z,93.85
2018-04-28T16:21:10.115Z,80.82
2018-04-28T16:23:40.713Z,92.00
2018-04-28T16:26:11.296Z,89.05
2018-04-28T16:28:42.076Z,89.07
2018-04-28T16:31:12.661Z,85.40
2018-04-28T16:33:43.201Z,84.03
2018-04-28T16:36:13.868Z,87.93
2018-04-28T16:38:44.503Z,86.70
2018-04-28T16:41:15.123Z,89.87
2018-04-28T16:43:45.978Z,87.93
2018-04-28T16:46:16.677Z,87.07
2018-04-28T16:48:47.751Z,93.37
2018-04-28T16:51:18.516Z,86.40
2018-04-28T16:53:49.269Z,87.57
2018-04-28T16:56:19.812Z,96.40
2018-04-28T16:58:50.635Z,93.37
2018-04-28T17:01:21.250Z,99.62
2018-04-28T17:03:51.911Z,94.50
2018-04-28T17:06:22.618Z,87.28
2018-04-28T17:08:53.276Z,86.78
2018-04-28T17:11:24.198Z,87.60
2018-04-28T17:13:54.828Z,93.82
2018-04-28T17:16:25.531Z,85.35
2018-04-28T17:18:56.217Z,90.10
2018-04-28T17:21:26.927Z,97.30
2018-04-28T17:23:57.861Z,87.60
2018-04-28T17:26:28.700Z,84.07
2018-04-28T17:28:59.542Z,81.50
2018-04-28T17:31:30.157Z,80.65
2018-04-28T17:34:00.853Z,82.88
2018-04-28T17:36:31.695Z,80.10
2018-04-28T17:39:02.696Z,78.78
2018-04-28T17:41:33.861Z,87.20
2018-04-28T17:44:04.619Z,80.75
2018-04-28T17:46:35.402Z,80.62
2018-04-28T17:49:06.113Z,80.05
2018-04-28T17:51:36.799Z,81.80
2018-04-28T17:54:07.527Z,84.53
2018-04-28T17:56:38.348Z,82.07
2018-04-28T17:59:09.124Z,85.90
2018-04-28T18:01:39.892Z,81.20
2018-04-28T18:04:10.539Z,85.93
2018-04-28T18:06:42.134Z,84.97
2018-04-28T18:09:12.784Z,84.03
2018-04-28T18:11:43.484Z,80.72
2018-04-28T18:14:14.161Z,84.70
2018-04-28T18:16:44.747Z,87.65
2018-04-28T18:19:15.535Z,84.53
2018-04-28T18:21:46.201Z,81.53
2018-04-28T18:24:16.849Z,86.00
2018-04-28T18:26:47.489Z,80.00
2018-04-28T18:29:18.107Z,85.68
2018-04-28T18:31:48.909Z,81.12
2018-04-28T18:34:19.600Z,84.10
2018-04-28T18:36:50.347Z,90.25
2018-04-28T18:39:21.130Z,91.00
2018-04-28T18:41:51.943Z,84.47
2018-04-28T18:44:22.576Z,83.35
2018-04-28T18:46:53.388Z,87.25
2018-04-28T18:49:24.338Z,87.03
2018-04-28T18:51:54.920Z,83.35
2018-04-28T18:54:26.025Z,83.20
2018-04-28T18:56:56.752Z,85.50
2018-04-28T18:59:27.494Z,85.22
2018-04-28T19:01:58.288Z,86.25
2018-04-28T19:04:29.144Z,83.43
2018-04-28T19:07:01.185Z,81.20
2018-04-28T19:09:32.227Z,80.15
2018-04-28T19:12:02.964Z,87.60
2018-04-28T19:14:33.842Z,86.22
2018-04-28T19:17:04.508Z,91.32
2018-04-28T19:19:35.366Z,85.43
2018-04-28T19:22:06.126Z,88.70
2018-04-28T19:24:36.764Z,80.78
2018-04-28T19:27:07.379Z,89.65
2018-04-28T19:29:37.995Z,83.25
2018-04-28T19:32:08.620Z,83.60
2018-04-28T19:34:39.778Z,84.80
2018-04-28T19:37:10.525Z,75.82
2018-04-28T19:39:41.207Z,82.47
2018-04-28T19:42:12.140Z,77.07
2018-04-28T19:44:42.851Z,89.00
2018-04-28T19:47:13.588Z,84.53
2018-04-28T19:49:44.176Z,86.18
2018-04-28T19:52:15.126Z,87.72
2018-04-28T19:54:46.459Z,82.47
2018-04-28T19:57:17.082Z,85.78
2018-04-28T19:59:53.938Z,90.00
2018-04-28T20:02:30.598Z,88.90
2018-04-28T20:05:01.776Z,73.90
2018-04-28T20:07:33.024Z,91.50
2018-04-28T20:10:04.638Z,88.07
2018-04-28T20:12:35.496Z,84.85
2018-04-28T20:15:06.743Z,83.30
2018-04-28T20:17:37.887Z,81.10
2018-04-28T20:20:09.190Z,84.00
2018-04-28T20:24:58.152Z,84.72
2018-04-28T20:27:29.410Z,87.32
2018-04-28T20:30:00.547Z,90.90
2018-04-28T20:32:32.781Z,79.35
2018-04-28T20:35:04.428Z,85.82
2018-04-28T20:37:36.406Z,84.18
2018-04-28T20:40:07.485Z,89.93
2018-04-28T20:42:38.584Z,89.57
2018-04-28T20:45:09.785Z,83.82
2018-04-28T20:47:40.892Z,87.43
2018-04-28T20:50:12.007Z,79.93
2018-04-28T20:52:42.968Z,96.60
2018-04-28T20:55:14.176Z,91.90
2018-04-28T20:57:45.185Z,82.30
2018-04-28T21:00:16.405Z,78.85
2018-04-28T21:02:47.452Z,81.97
2018-04-28T21:05:18.697Z,85.15
2018-04-28T21:07:49.889Z,93.35
2018-04-28T21:10:22.373Z,89.43
2018-04-28T21:12:55.898Z,88.55
2018-04-28T21:15:27.828Z,84.65
2018-04-28T21:17:59.298Z,85.40
2018-04-28T21:20:32.758Z,80.30
2018-04-28T21:23:04.226Z,77.20
2018-04-28T21:25:35.470Z,76.60
2018-04-28T21:28:06.562Z,74.78
2018-04-28T21:30:37.995Z,76.28
2018-04-28T21:33:08.817Z,86.53
2018-04-28T21:35:39.882Z,172.75
2018-04-28T21:38:10.835Z,95.22
2018-04-28T21:40:41.898Z,84.32
2018-04-28T21:43:12.755Z,79.57
2018-04-28T21:45:44.029Z,84.50
2018-04-28T21:48:15.318Z,77.50
2018-04-28T21:50:46.329Z,97.78
2018-04-28T21:53:18.599Z,82.07
2018-04-28T21:55:49.758Z,82.03
2018-04-28T21:58:20.772Z,83.57
2018-04-28T22:00:52.761Z,85.20
2018-04-28T22:03:24.144Z,89.95
2018-04-28T22:05:55.491Z,93.47
2018-04-28T22:08:29.122Z,83.90
2018-04-28T22:11:00.844Z,81.12
2018-04-28T22:13:32.015Z,82.88
2018-04-28T22:16:03.665Z,81.68
2018-04-28T22:18:35.969Z,83.35
2018-04-28T22:21:08.075Z,75.03
2018-04-28T22:23:40.021Z,77.95
2018-04-28T22:26:13.583Z,75.85
2018-04-28T22:28:45.066Z,76.85
2018-04-28T22:31:15.905Z,81.15
2018-04-28T22:33:47.339Z,113.95
2018-04-28T22:36:18.354Z,94.07
2018-04-28T22:38:49.410Z,84.75
2018-04-28T22:41:20.372Z,83.40
2018-04-28T22:43:51.340Z,79.50
2018-04-28T22:46:22.706Z,86.90
2018-04-28T22:48:53.973Z,78.15
2018-04-28T22:51:24.876Z,85.45
2018-04-28T22:53:55.937Z,88.68
2018-04-28T22:56:26.944Z,82.97
2018-04-28T22:58:58.164Z,94.32
2018-04-28T23:01:29.740Z,89.90
2018-04-28T23:04:00.693Z,91.03
2018-04-28T23:06:32.546Z,81.60
2018-04-28T23:09:03.754Z,85.07
2018-04-28T23:11:34.745Z,85.15
2018-04-28T23:14:05.724Z,77.03
2018-04-28T23:16:36.662Z,81.00
2018-04-28T23:19:07.774Z,85.10
2018-04-28T23:21:38.799Z,77.55
2018-04-28T23:24:09.933Z,83.05
2018-04-28T23:26:41.045Z,86.95
2018-04-28T23:29:12.036Z,89.45
2018-04-28T23:31:43.128Z,83.50
2018-04-28T23:34:14.307Z,83.45
2018-04-28T23:36:45.333Z,82.22
2018-04-28T23:39:16.556Z,84.70
2018-04-28T23:41:47.791Z,75.22
2018-04-28T23:44:18.832Z,84.90
2018-04-28T23:46:49.905Z,87.47
2018-04-28T23:49:21.252Z,81.10
2018-04-28T23:51:52.453Z,80.12
2018-04-28T23:54:23.405Z,83.82
2018-04-28T23:56:54.579Z,83.18
2018-04-28T23:59:25.557Z,77.05
